createdAt,value
2022-11-02T00:01:52.755Z,19.77
2022-11-02T00:04:25.506Z,19.73
2022-11-02T00:06:56.445Z,18.33
2022-11-02T00:09:26.786Z,19.53
2022-11-02T00:11:57.328Z,19.17
2022-11-02T00:14:25.481Z,19.67
2022-11-02T00:16:55.433Z,19.60
2022-11-02T00:19:26.588Z,20.40
2022-11-02T00:21:57.402Z,20.03
2022-11-02T00:24:28.670Z,19.57
2022-11-02T00:32:19.975Z,19.10
2022-11-02T00:40:13.055Z,19.20
2022-11-02T00:42:43.534Z,18.10
2022-11-02T00:45:15.222Z,17.83
2022-11-02T00:47:46.658Z,17.73
2022-11-02T00:50:13.907Z,16.93
2022-11-02T00:52:44.459Z,16.33
2022-11-02T00:55:16.407Z,17.40
2022-11-02T00:57:55.672Z,17.33
2022-11-02T01:00:26.372Z,17.87
2022-11-02T01:03:04.055Z,19.60
2022-11-02T01:05:36.197Z,18.73
2022-11-02T01:08:12.686Z,18.57
2022-11-02T01:10:48.279Z,18.80
2022-11-02T01:13:20.578Z,17.57
2022-11-02T01:15:51.180Z,16.80
2022-11-02T01:18:22.534Z,16.70
2022-11-02T01:21:00.222Z,16.70
2022-11-02T01:23:36.096Z,16.97
2022-11-02T01:26:10.663Z,17.37
2022-11-02T01:28:41.502Z,16.53
2022-11-02T01:31:20.059Z,16.70
2022-11-02T01:33:50.753Z,15.63
2022-11-02T01:38:59.542Z,16.57
2022-11-02T01:44:35.305Z,15.93
2022-11-02T01:47:16.671Z,15.60
2022-11-02T01:49:49.662Z,15.47
2022-11-02T01:52:31.440Z,16.07
2022-11-02T01:55:15.383Z,16.60
2022-11-02T01:57:49.337Z,17.00
2022-11-02T02:00:20.252Z,16.67
2022-11-02T02:03:21.304Z,16.03
2022-11-02T02:06:03.169Z,14.87
2022-11-02T02:08:35.992Z,15.97
2022-11-02T02:11:05.633Z,15.37
2022-11-02T02:13:35.382Z,14.80
2022-11-02T02:16:22.667Z,14.60
2022-11-02T02:19:01.114Z,14.63
2022-11-02T02:22:09.698Z,15.30
2022-11-02T02:25:31.770Z,15.20
2022-11-02T02:28:24.388Z,15.53
2022-11-02T02:31:30.015Z,15.27
2022-11-02T02:37:31.962Z,14.47
2022-11-02T02:40:33.721Z,14.57
2022-11-02T02:46:43.278Z,13.80
2022-11-02T02:49:45.658Z,14.03
2022-11-02T02:52:23.932Z,13.63
2022-11-02T02:54:54.767Z,12.83
2022-11-02T02:57:32.982Z,13.50
2022-11-02T03:00:01.444Z,13.90
2022-11-02T03:05:34.560Z,13.20
2022-11-02T03:08:26.891Z,13.43
2022-11-02T03:11:14.606Z,13.73
2022-11-02T03:14:11.407Z,12.53
2022-11-02T03:17:00.788Z,13.23
2022-11-02T03:19:51.602Z,12.97
2022-11-02T03:22:29.682Z,13.17
2022-11-02T03:25:27.703Z,13.00
2022-11-02T03:28:15.388Z,12.70
2022-11-02T03:30:57.226Z,12.10
2022-11-02T03:33:57.294Z,12.63
2022-11-02T03:36:54.130Z,12.80
2022-11-02T03:39:46.593Z,13.03
2022-11-02T03:42:22.281Z,10.93
2022-11-02T03:45:01.726Z,12.80
2022-11-02T03:47:36.061Z,12.93
2022-11-02T03:50:16.003Z,13.20
2022-11-02T03:55:36.083Z,12.87
2022-11-02T04:01:04.538Z,12.87
2022-11-02T04:06:17.053Z,12.50
2022-11-02T04:08:48.310Z,13.27
2022-11-02T04:11:40.589Z,12.77
2022-11-02T04:14:34.666Z,12.13
2022-11-02T04:17:25.435Z,12.47
2022-11-02T04:19:57.258Z,13.03
2022-11-02T04:22:47.410Z,13.93
2022-11-02T04:28:31.555Z,14.83
2022-11-02T04:31:07.618Z,15.43
2022-11-02T04:33:41.385Z,14.47
2022-11-02T04:36:10.892Z,15.47
2022-11-02T04:38:43.625Z,15.57
2022-11-02T04:41:46.973Z,13.10
2022-11-02T04:44:43.514Z,13.47
2022-11-02T04:47:22.186Z,12.57
2022-11-02T04:49:53.057Z,12.60
2022-11-02T04:52:24.558Z,11.67
2022-11-02T04:55:02.050Z,12.60
2022-11-02T04:57:32.819Z,12.07
2022-11-02T05:00:02.068Z,12.40
2022-11-02T05:02:34.642Z,12.60
2022-11-02T05:05:04.784Z,12.90
2022-11-02T05:07:37.331Z,12.67
2022-11-02T05:10:07.269Z,12.73
2022-11-02T05:12:37.844Z,12.93
2022-11-02T05:15:06.287Z,12.47
2022-11-02T05:17:43.574Z,12.83
2022-11-02T05:20:17.236Z,12.93
2022-11-02T05:22:47.417Z,14.00
2022-11-02T05:25:18.165Z,15.67
2022-11-02T05:27:50.608Z,15.03
2022-11-02T05:30:23.067Z,14.67
2022-11-02T05:32:55.459Z,15.47
2022-11-02T05:35:25.625Z,15.60
2022-11-02T05:37:58.751Z,15.43
2022-11-02T05:40:28.650Z,14.80
2022-11-02T05:45:47.453Z,16.03
2022-11-02T05:48:17.097Z,15.87
2022-11-02T05:50:47.494Z,15.37
2022-11-02T05:53:17.409Z,15.30
2022-11-02T05:55:47.623Z,16.23
2022-11-02T05:58:16.138Z,16.10
2022-11-02T06:00:44.367Z,14.53
2022-11-02T06:03:16.954Z,15.10
2022-11-02T06:05:44.679Z,15.30
2022-11-02T06:08:18.929Z,16.13
2022-11-02T06:10:49.407Z,15.70
2022-11-02T06:13:18.312Z,15.23
2022-11-02T06:18:39.378Z,13.73
2022-11-02T06:21:10.802Z,14.60
2022-11-02T06:23:41.510Z,13.73
2022-11-02T06:26:12.057Z,14.03
2022-11-02T06:28:42.840Z,14.70
2022-11-02T06:31:13.746Z,15.23
2022-11-02T06:33:43.490Z,15.63
2022-11-02T06:38:55.279Z,17.37
2022-11-02T06:44:08.182Z,17.37
2022-11-02T06:46:45.182Z,21.37
2022-11-02T06:49:16.733Z,23.00
2022-11-02T06:54:28.899Z,19.73
2022-11-02T06:56:57.880Z,15.50
2022-11-02T06:59:26.139Z,14.47
2022-11-02T07:02:02.933Z,13.80
2022-11-02T07:04:33.580Z,14.13
2022-11-02T07:09:47.861Z,13.00
2022-11-02T07:12:23.050Z,12.73
2022-11-02T07:14:53.219Z,12.47
2022-11-02T07:17:25.912Z,12.17
2022-11-02T07:20:00.704Z,11.73
2022-11-02T07:22:32.748Z,11.17
2022-11-02T07:25:01.138Z,10.67
2022-11-02T07:27:30.816Z,10.30
2022-11-02T07:30:01.602Z,10.67
2022-11-02T07:35:17.183Z,9.93
2022-11-02T07:37:56.683Z,9.80
2022-11-02T07:40:26.065Z,10.37
2022-11-02T07:42:55.346Z,10.60
2022-11-02T07:45:35.891Z,9.97
2022-11-02T07:48:04.491Z,10.23
2022-11-02T07:50:34.247Z,9.67
2022-11-02T07:53:03.795Z,9.93
2022-11-02T07:55:31.646Z,12.13
2022-11-02T07:58:05.559Z,19.43
2022-11-02T08:00:37.455Z,25.90
2022-11-02T08:03:13.511Z,21.30
2022-11-02T08:05:46.554Z,16.77
2022-11-02T08:08:33.656Z,15.10
2022-11-02T08:11:07.409Z,10.93
2022-11-02T08:13:38.285Z,10.87
2022-11-02T08:16:05.450Z,9.70
2022-11-02T08:18:37.252Z,10.53
2022-11-02T08:21:08.229Z,9.30
2022-11-02T08:23:38.979Z,7.57
2022-11-02T08:26:08.646Z,6.20
2022-11-02T08:28:44.156Z,6.17
2022-11-02T08:31:16.580Z,5.60
2022-11-02T08:33:53.991Z,4.50
2022-11-02T08:39:07.320Z,4.50
2022-11-02T08:41:37.938Z,3.93
2022-11-02T08:44:09.356Z,3.67
2022-11-02T08:46:37.871Z,3.80
2022-11-02T08:49:08.411Z,3.83
2022-11-02T08:54:22.432Z,3.93
2022-11-02T08:56:53.310Z,3.70
2022-11-02T08:59:24.572Z,3.50
2022-11-02T09:01:54.577Z,3.40
2022-11-02T09:04:25.340Z,3.33
2022-11-02T09:06:55.862Z,3.00
2022-11-02T09:09:25.369Z,3.03
2022-11-02T09:12:02.371Z,3.10
2022-11-02T09:14:38.918Z,2.97
2022-11-02T09:17:07.194Z,3.20
2022-11-02T09:19:35.147Z,3.10
2022-11-02T09:22:05.745Z,3.43
2022-11-02T09:24:35.033Z,3.20
2022-11-02T09:27:11.994Z,3.33
2022-11-02T09:29:40.301Z,3.13
2022-11-02T09:34:54.419Z,3.17
2022-11-02T09:37:33.018Z,3.20
2022-11-02T09:40:04.567Z,2.97
2022-11-02T09:43:00.105Z,3.00
2022-11-02T09:45:28.757Z,2.90
2022-11-02T09:48:27.027Z,3.20
2022-11-02T09:51:16.371Z,3.10
2022-11-02T09:54:10.465Z,2.80
2022-11-02T09:56:43.533Z,2.67
2022-11-02T09:59:29.990Z,2.80
2022-11-02T10:02:06.207Z,2.93
2022-11-02T10:04:53.947Z,2.80
2022-11-02T10:07:52.913Z,2.80
2022-11-02T10:10:44.729Z,2.60
2022-11-02T10:13:51.225Z,2.60
2022-11-02T10:16:40.967Z,2.53
2022-11-02T10:19:18.597Z,3.00
2022-11-02T10:21:54.307Z,2.70
2022-11-02T10:24:34.536Z,2.67
2022-11-02T10:27:14.218Z,3.17
2022-11-02T10:30:20.222Z,2.53
2022-11-02T10:32:52.707Z,2.97
2022-11-02T10:35:37.106Z,2.90
2022-11-02T10:38:52.659Z,3.03
2022-11-02T10:42:05.148Z,3.10
2022-11-02T10:44:50.863Z,2.80
2022-11-02T10:47:44.181Z,2.80
2022-11-02T10:50:32.896Z,2.90
2022-11-02T10:53:35.320Z,2.80
2022-11-02T10:56:25.412Z,2.80
2022-11-02T10:59:26.793Z,2.60
2022-11-02T11:02:10.563Z,2.70
2022-11-02T11:04:42.772Z,2.50
2022-11-02T11:07:23.331Z,2.70
2022-11-02T11:10:00.456Z,2.73
2022-11-02T11:12:41.420Z,2.90
2022-11-02T11:21:13.936Z,2.77
2022-11-02T11:23:43.471Z,2.60
2022-11-02T11:26:29.769Z,2.67
2022-11-02T11:31:44.199Z,2.50
2022-11-02T11:34:30.970Z,2.47
2022-11-02T11:37:18.906Z,2.30
2022-11-02T11:39:54.882Z,2.30
2022-11-02T11:42:35.341Z,2.50
2022-11-02T11:45:29.023Z,2.30
2022-11-02T11:48:40.543Z,2.20
2022-11-02T11:51:34.627Z,2.20
2022-11-02T11:54:30.434Z,2.00
2022-11-02T11:57:32.147Z,2.33
2022-11-02T12:00:12.378Z,2.33
2022-11-02T12:02:44.752Z,2.10
2022-11-02T12:05:24.104Z,2.23
2022-11-02T12:08:30.994Z,2.90
2022-11-02T12:11:37.349Z,2.30
2022-11-02T12:14:29.045Z,1.90
2022-11-02T12:17:15.600Z,2.03
2022-11-02T12:20:10.700Z,2.10
2022-11-02T12:23:11.865Z,2.30
2022-11-02T12:26:03.300Z,2.10
2022-11-02T12:29:11.732Z,2.20
2022-11-02T12:31:59.668Z,2.20
2022-11-02T12:38:18.446Z,1.97
2022-11-02T12:40:52.282Z,2.13
2022-11-02T12:43:50.530Z,1.80
2022-11-02T12:46:36.984Z,2.23
2022-11-02T12:49:49.070Z,1.93
2022-11-02T12:52:46.993Z,2.03
2022-11-02T12:55:23.751Z,2.23
2022-11-02T12:58:00.684Z,2.00
2022-11-02T13:00:43.896Z,2.20
2022-11-02T13:03:46.559Z,2.10
2022-11-02T13:06:42.052Z,2.07
2022-11-02T13:09:32.642Z,2.00
2022-11-02T13:12:20.582Z,2.00
2022-11-02T13:14:51.239Z,1.80
2022-11-02T13:17:42.071Z,2.40
2022-11-02T13:20:57.547Z,2.03
2022-11-02T13:24:06.862Z,2.23
2022-11-02T13:26:44.911Z,2.00
2022-11-02T13:29:35.325Z,1.97
2022-11-02T13:35:37.214Z,2.20
2022-11-02T13:38:36.296Z,2.30
2022-11-02T13:41:24.692Z,2.10
2022-11-02T13:44:13.036Z,2.10
2022-11-02T13:47:35.427Z,2.30
2022-11-02T13:50:13.561Z,2.10
2022-11-02T13:52:58.613Z,2.10
2022-11-02T13:55:48.531Z,2.40
2022-11-02T13:58:59.041Z,2.10
2022-11-02T14:01:31.105Z,2.30
2022-11-02T14:04:13.351Z,2.20
2022-11-02T14:07:08.371Z,2.50
2022-11-02T14:09:44.956Z,2.27
2022-11-02T14:12:41.583Z,2.37
2022-11-02T14:15:18.351Z,2.57
2022-11-02T14:18:31.306Z,2.80
2022-11-02T14:21:42.041Z,3.63
2022-11-02T14:24:38.971Z,3.00
2022-11-02T14:27:17.112Z,3.00
2022-11-02T14:29:47.854Z,4.23
2022-11-02T14:32:39.610Z,4.20
2022-11-02T14:35:25.798Z,4.00
2022-11-02T14:38:22.912Z,3.57
2022-11-02T14:41:27.517Z,3.70
2022-11-02T14:44:35.427Z,3.50
2022-11-02T14:47:16.032Z,3.43
2022-11-02T14:49:51.267Z,3.67
2022-11-02T14:52:32.642Z,4.20
2022-11-02T14:55:37.484Z,3.90
2022-11-02T14:58:24.264Z,5.80
2022-11-02T15:00:55.546Z,5.97
2022-11-02T15:03:39.768Z,5.07
2022-11-02T15:06:29.302Z,4.77
2022-11-02T15:09:01.084Z,5.43
2022-11-02T15:12:23.274Z,4.70
2022-11-02T15:15:09.887Z,4.60
2022-11-02T15:17:42.736Z,4.37
2022-11-02T15:20:29.821Z,4.70
2022-11-02T15:23:37.853Z,3.93
2022-11-02T15:26:07.135Z,3.93
2022-11-02T15:31:26.049Z,5.30
2022-11-02T15:33:59.339Z,4.57
2022-11-02T15:36:46.258Z,4.57
2022-11-02T15:39:21.189Z,3.87
2022-11-02T15:42:16.904Z,3.87
2022-11-02T15:45:48.823Z,3.30
2022-11-02T15:48:33.938Z,3.37
2022-11-02T15:51:20.047Z,3.40
2022-11-02T15:54:02.384Z,3.43
2022-11-02T15:57:07.376Z,3.80
2022-11-02T15:59:59.965Z,3.60
2022-11-02T16:02:37.135Z,3.43
2022-11-02T16:05:09.044Z,3.60
2022-11-02T16:07:57.446Z,3.37
2022-11-02T16:13:21.135Z,3.43
2022-11-02T16:15:51.390Z,3.17
2022-11-02T16:18:49.529Z,3.53
2022-11-02T16:21:19.992Z,4.00
2022-11-02T16:23:53.595Z,3.90
2022-11-02T16:26:27.525Z,3.57
2022-11-02T16:28:59.010Z,3.10
2022-11-02T16:31:41.088Z,3.37
2022-11-02T16:34:35.597Z,3.10
2022-11-02T16:37:10.265Z,3.17
2022-11-02T16:39:49.605Z,2.90
2022-11-02T16:42:28.157Z,3.30
2022-11-02T16:45:00.869Z,3.13
2022-11-02T16:47:42.812Z,3.00
2022-11-02T16:50:29.383Z,3.37
2022-11-02T16:53:31.090Z,3.17
2022-11-02T17:29:58.399Z,3.80
2022-11-02T17:32:27.118Z,3.60
2022-11-02T17:34:57.452Z,4.40
2022-11-02T17:37:31.846Z,4.33
2022-11-02T17:40:05.767Z,4.47
2022-11-02T17:42:56.280Z,4.40
2022-11-02T17:45:34.137Z,4.40
2022-11-02T17:50:47.712Z,4.30
2022-11-02T17:53:19.078Z,4.80
2022-11-02T17:55:56.383Z,4.43
2022-11-02T17:58:25.861Z,4.60
2022-11-02T18:00:55.906Z,4.37
2022-11-02T18:03:36.368Z,4.47
2022-11-02T18:06:10.091Z,4.40
2022-11-02T18:12:49.991Z,4.20
2022-11-02T18:15:43.695Z,4.27
2022-11-02T18:18:17.627Z,4.67
2022-11-02T18:20:47.703Z,4.17
2022-11-02T18:23:23.119Z,4.27
2022-11-02T18:28:41.374Z,4.53
2022-11-02T18:31:16.133Z,4.67
2022-11-02T18:33:46.817Z,4.83
2022-11-02T18:39:02.474Z,4.20
2022-11-02T18:41:43.052Z,4.63
2022-11-02T18:44:15.631Z,5.57
2022-11-02T18:46:48.341Z,9.17
2022-11-02T18:49:20.110Z,14.47
2022-11-02T18:51:53.786Z,9.70
2022-11-02T18:59:53.456Z,8.90
2022-11-02T19:02:37.986Z,8.47
2022-11-02T19:05:30.075Z,6.70
2022-11-02T19:08:26.213Z,6.17
2022-11-02T19:10:54.186Z,6.70
2022-11-02T19:13:25.174Z,6.30
2022-11-02T19:15:54.367Z,5.57
2022-11-02T19:18:24.083Z,4.90
2022-11-02T19:23:49.961Z,4.13
2022-11-02T19:26:21.492Z,4.27
2022-11-02T19:28:50.261Z,4.10
2022-11-02T19:31:20.492Z,4.10
2022-11-02T19:33:49.972Z,4.30
2022-11-02T19:36:17.685Z,3.73
2022-11-02T19:38:45.588Z,3.77
2022-11-02T19:41:17.629Z,4.20
2022-11-02T19:43:49.186Z,4.00
2022-11-02T19:46:23.164Z,4.30
2022-11-02T19:48:51.382Z,4.27
2022-11-02T19:51:27.118Z,4.10
2022-11-02T19:53:58.944Z,4.53
2022-11-02T19:56:29.660Z,5.40
2022-11-02T19:59:00.009Z,4.67
2022-11-02T20:01:41.219Z,4.53
2022-11-02T20:04:12.014Z,4.37
2022-11-02T20:06:47.069Z,3.37
2022-11-02T20:09:20.326Z,3.60
2022-11-02T20:11:51.189Z,3.70
2022-11-02T20:14:25.324Z,3.60
2022-11-02T20:17:04.487Z,3.90
2022-11-02T20:19:43.838Z,4.93
2022-11-02T20:22:11.402Z,4.70
2022-11-02T20:24:39.749Z,4.50
2022-11-02T20:27:08.735Z,4.53
2022-11-02T20:29:40.898Z,4.90
2022-11-02T20:32:10.431Z,4.40
2022-11-02T20:34:38.577Z,4.30
2022-11-02T20:37:07.959Z,4.23
2022-11-02T20:39:36.751Z,4.60
2022-11-02T20:42:06.868Z,4.97
2022-11-02T20:44:34.519Z,5.57
2022-11-02T20:47:03.059Z,5.60
2022-11-02T20:49:50.071Z,5.30
2022-11-02T20:52:22.533Z,5.00
2022-11-02T20:54:50.044Z,7.10
2022-11-02T20:57:21.655Z,5.33
2022-11-02T20:59:49.325Z,5.43
2022-11-02T21:02:16.575Z,6.40
2022-11-02T21:04:44.190Z,5.70
2022-11-02T21:07:12.358Z,6.07
2022-11-02T21:09:40.151Z,5.30
2022-11-02T21:12:32.382Z,5.47
2022-11-02T21:15:00.278Z,4.80
2022-11-02T21:17:28.696Z,5.20
2022-11-02T21:20:02.881Z,4.70
2022-11-02T21:22:43.418Z,4.70
2022-11-02T21:25:11.635Z,4.73
2022-11-02T21:27:41.971Z,5.30
2022-11-02T21:30:09.672Z,4.73
2022-11-02T21:32:36.674Z,5.00
2022-11-02T21:35:05.126Z,4.70
2022-11-02T21:37:32.257Z,4.57
2022-11-02T21:39:59.224Z,4.30
2022-11-02T21:42:26.208Z,4.30
2022-11-02T21:44:53.101Z,4.60
2022-11-02T21:47:20.050Z,4.30
2022-11-02T21:49:47.036Z,4.70
2022-11-02T21:52:13.997Z,4.50
2022-11-02T21:54:41.035Z,4.17
2022-11-02T21:57:08.009Z,4.30
2022-11-02T21:59:36.162Z,4.30
2022-11-02T22:02:03.238Z,4.50
2022-11-02T22:04:31.835Z,5.20
2022-11-02T22:07:00.611Z,6.00
2022-11-02T22:09:29.152Z,4.93
2022-11-02T22:12:15.509Z,5.27
2022-11-02T22:14:44.567Z,6.33
2022-11-02T22:17:16.900Z,7.27
2022-11-02T22:19:56.630Z,8.00
2022-11-02T22:22:24.053Z,7.27
2022-11-02T22:24:50.965Z,5.60
2022-11-02T22:27:20.498Z,5.37
2022-11-02T22:29:48.605Z,5.33
2022-11-02T22:32:15.692Z,5.40
2022-11-02T22:34:43.766Z,6.00
2022-11-02T22:37:29.191Z,5.40
2022-11-02T22:39:56.158Z,5.03
2022-11-02T22:42:26.536Z,5.47
2022-11-02T22:44:55.181Z,5.10
2022-11-02T22:47:22.060Z,4.63
2022-11-02T22:49:49.050Z,4.90
2022-11-02T22:52:15.928Z,4.60
2022-11-02T22:54:44.036Z,4.90
2022-11-02T22:57:10.882Z,5.03
2022-11-02T22:59:37.935Z,5.37
2022-11-02T23:02:04.853Z,5.47
2022-11-02T23:04:33.099Z,5.30
2022-11-02T23:07:00.021Z,4.83
2022-11-02T23:09:27.920Z,4.73
2022-11-02T23:11:56.427Z,4.90
2022-11-02T23:14:26.953Z,4.80
2022-11-02T23:16:54.484Z,4.40
2022-11-02T23:19:28.222Z,4.63
2022-11-02T23:22:27.372Z,4.33
2022-11-02T23:25:12.870Z,5.10
2022-11-02T23:28:06.668Z,4.70
2022-11-02T23:31:07.351Z,5.07
2022-11-02T23:33:41.558Z,6.37
2022-11-02T23:36:12.446Z,6.10
2022-11-02T23:38:59.293Z,5.67
2022-11-02T23:41:28.885Z,4.33
2022-11-02T23:44:12.417Z,4.73
2022-11-02T23:46:50.696Z,4.63
2022-11-02T23:49:21.021Z,4.60
2022-11-02T23:52:07.519Z,5.20
2022-11-02T23:54:54.382Z,6.17
2022-11-02T23:57:22.667Z,5.97
2022-11-02T23:59:51.824Z,5.53
